sensor_id;sensor_type;location;lat;lon;timestamp;P1;durP1;ratioP1;P2;durP2;ratioP2
15307;SDS011;7755;52.208;6.964;2023-01-19T00:00:09;17.13;;;15.13;;
15307;SDS011;7755;52.208;6.964;2023-01-19T00:08:24;17.80;;;15.37;;
15307;SDS011;7755;52.208;6.964;2023-01-19T00:12:27;18.63;;;15.80;;
15307;SDS011;7755;52.208;6.964;2023-01-19T00:16:31;19.07;;;17.17;;
15307;SDS011;7755;52.208;6.964;2023-01-19T00:20:34;19.80;;;16.33;;
15307;SDS011;7755;52.208;6.964;2023-01-19T00:24:37;23.73;;;16.83;;
15307;SDS011;7755;52.208;6.964;2023-01-19T00:28:40;16.97;;;14.80;;
15307;SDS011;7755;52.208;6.964;2023-01-19T00:32:45;19.97;;;15.77;;
15307;SDS011;7755;52.208;6.964;2023-01-19T00:36:47;22.10;;;16.90;;
15307;SDS011;7755;52.208;6.964;2023-01-19T00:40:51;23.87;;;18.47;;
15307;SDS011;7755;52.208;6.964;2023-01-19T00:44:54;20.93;;;18.33;;
15307;SDS011;7755;52.208;6.964;2023-01-19T00:48:58;23.57;;;19.73;;
15307;SDS011;7755;52.208;6.964;2023-01-19T00:53:01;25.90;;;19.33;;
15307;SDS011;7755;52.208;6.964;2023-01-19T00:57:10;21.30;;;18.20;;
15307;SDS011;7755;52.208;6.964;2023-01-19T01:01:14;23.50;;;18.10;;
15307;SDS011;7755;52.208;6.964;2023-01-19T01:05:18;24.37;;;18.77;;
15307;SDS011;7755;52.208;6.964;2023-01-19T01:09:22;23.93;;;19.43;;
15307;SDS011;7755;52.208;6.964;2023-01-19T01:13:25;21.33;;;17.97;;
15307;SDS011;7755;52.208;6.964;2023-01-19T01:17:29;22.90;;;19.20;;
15307;SDS011;7755;52.208;6.964;2023-01-19T01:21:34;21.80;;;18.70;;
15307;SDS011;7755;52.208;6.964;2023-01-19T01:25:37;24.63;;;18.97;;
15307;SDS011;7755;52.208;6.964;2023-01-19T01:29:41;23.37;;;19.23;;
15307;SDS011;7755;52.208;6.964;2023-01-19T01:33:47;22.93;;;18.70;;
15307;SDS011;7755;52.208;6.964;2023-01-19T01:37:51;23.00;;;18.83;;
15307;SDS011;7755;52.208;6.964;2023-01-19T01:41:55;25.10;;;20.23;;
15307;SDS011;7755;52.208;6.964;2023-01-19T01:45:58;25.83;;;20.63;;
15307;SDS011;7755;52.208;6.964;2023-01-19T01:50:04;23.77;;;18.67;;
15307;SDS011;7755;52.208;6.964;2023-01-19T01:54:18;24.70;;;19.33;;
15307;SDS011;7755;52.208;6.964;2023-01-19T01:58:27;22.03;;;19.30;;
15307;SDS011;7755;52.208;6.964;2023-01-19T02:02:33;25.47;;;18.73;;
15307;SDS011;7755;52.208;6.964;2023-01-19T02:06:55;25.10;;;19.97;;
15307;SDS011;7755;52.208;6.964;2023-01-19T02:11:17;24.73;;;19.63;;
15307;SDS011;7755;52.208;6.964;2023-01-19T02:15:38;29.73;;;20.83;;
15307;SDS011;7755;52.208;6.964;2023-01-19T02:19:41;25.80;;;20.40;;
15307;SDS011;7755;52.208;6.964;2023-01-19T02:23:48;29.57;;;21.03;;
15307;SDS011;7755;52.208;6.964;2023-01-19T02:27:53;29.30;;;22.30;;
15307;SDS011;7755;52.208;6.964;2023-01-19T02:31:58;25.90;;;20.50;;
15307;SDS011;7755;52.208;6.964;2023-01-19T02:36:03;25.73;;;19.43;;
15307;SDS011;7755;52.208;6.964;2023-01-19T02:40:16;25.63;;;20.40;;
15307;SDS011;7755;52.208;6.964;2023-01-19T02:44:26;29.43;;;21.70;;
15307;SDS011;7755;52.208;6.964;2023-01-19T02:48:32;25.30;;;19.73;;
15307;SDS011;7755;52.208;6.964;2023-01-19T02:52:35;26.60;;;21.13;;
15307;SDS011;7755;52.208;6.964;2023-01-19T02:56:43;24.97;;;19.57;;
15307;SDS011;7755;52.208;6.964;2023-01-19T03:00:56;27.43;;;21.40;;
15307;SDS011;7755;52.208;6.964;2023-01-19T03:05:18;25.93;;;20.67;;
15307;SDS011;7755;52.208;6.964;2023-01-19T03:09:31;29.03;;;21.00;;
15307;SDS011;7755;52.208;6.964;2023-01-19T03:13:44;24.33;;;20.13;;
15307;SDS011;7755;52.208;6.964;2023-01-19T03:17:52;24.93;;;20.67;;
15307;SDS011;7755;52.208;6.964;2023-01-19T03:21:56;26.97;;;19.93;;
15307;SDS011;7755;52.208;6.964;2023-01-19T03:26:02;27.67;;;20.23;;
15307;SDS011;7755;52.208;6.964;2023-01-19T03:30:11;31.13;;;21.87;;
15307;SDS011;7755;52.208;6.964;2023-01-19T03:34:19;25.93;;;20.93;;
15307;SDS011;7755;52.208;6.964;2023-01-19T03:38:30;26.03;;;21.10;;
15307;SDS011;7755;52.208;6.964;2023-01-19T03:42:37;24.30;;;19.77;;
15307;SDS011;7755;52.208;6.964;2023-01-19T03:46:43;28.03;;;20.63;;
15307;SDS011;7755;52.208;6.964;2023-01-19T03:50:49;26.50;;;21.23;;
15307;SDS011;7755;52.208;6.964;2023-01-19T03:54:53;25.47;;;20.17;;
15307;SDS011;7755;52.208;6.964;2023-01-19T03:58:57;24.63;;;19.83;;
15307;SDS011;7755;52.208;6.964;2023-01-19T04:03:01;25.00;;;19.20;;
15307;SDS011;7755;52.208;6.964;2023-01-19T04:07:05;24.40;;;20.23;;
15307;SDS011;7755;52.208;6.964;2023-01-19T04:11:08;24.07;;;20.03;;
15307;SDS011;7755;52.208;6.964;2023-01-19T04:15:12;19.57;;;15.73;;
15307;SDS011;7755;52.208;6.964;2023-01-19T04:19:17;21.70;;;17.57;;
15307;SDS011;7755;52.208;6.964;2023-01-19T04:23:20;18.17;;;15.70;;
15307;SDS011;7755;52.208;6.964;2023-01-19T04:27:24;19.97;;;16.83;;
15307;SDS011;7755;52.208;6.964;2023-01-19T04:31:27;17.73;;;15.47;;
15307;SDS011;7755;52.208;6.964;2023-01-19T04:35:31;16.73;;;14.97;;
15307;SDS011;7755;52.208;6.964;2023-01-19T04:39:35;15.93;;;14.33;;
15307;SDS011;7755;52.208;6.964;2023-01-19T04:43:38;18.00;;;15.47;;
15307;SDS011;7755;52.208;6.964;2023-01-19T04:47:41;16.23;;;14.00;;
15307;SDS011;7755;52.208;6.964;2023-01-19T04:51:46;18.40;;;16.40;;
15307;SDS011;7755;52.208;6.964;2023-01-19T04:55:51;16.83;;;15.03;;
15307;SDS011;7755;52.208;6.964;2023-01-19T04:59:55;19.00;;;16.87;;
15307;SDS011;7755;52.208;6.964;2023-01-19T05:03:58;19.97;;;17.43;;
15307;SDS011;7755;52.208;6.964;2023-01-19T05:08:03;19.90;;;16.83;;
15307;SDS011;7755;52.208;6.964;2023-01-19T05:12:06;18.73;;;16.73;;
15307;SDS011;7755;52.208;6.964;2023-01-19T05:16:09;17.67;;;15.83;;
15307;SDS011;7755;52.208;6.964;2023-01-19T05:20:12;19.33;;;16.13;;
15307;SDS011;7755;52.208;6.964;2023-01-19T05:24:18;14.17;;;12.70;;
15307;SDS011;7755;52.208;6.964;2023-01-19T05:28:21;17.70;;;15.33;;
15307;SDS011;7755;52.208;6.964;2023-01-19T05:32:24;17.60;;;15.20;;
15307;SDS011;7755;52.208;6.964;2023-01-19T05:36:27;16.37;;;14.57;;
15307;SDS011;7755;52.208;6.964;2023-01-19T05:40:33;15.63;;;13.67;;
15307;SDS011;7755;52.208;6.964;2023-01-19T05:44:36;14.33;;;12.53;;
15307;SDS011;7755;52.208;6.964;2023-01-19T05:48:39;14.00;;;12.43;;
15307;SDS011;7755;52.208;6.964;2023-01-19T05:52:43;12.83;;;11.40;;
15307;SDS011;7755;52.208;6.964;2023-01-19T05:56:48;13.03;;;10.10;;
15307;SDS011;7755;52.208;6.964;2023-01-19T06:00:51;11.33;;;10.23;;
15307;SDS011;7755;52.208;6.964;2023-01-19T06:04:54;10.83;;;9.70;;
15307;SDS011;7755;52.208;6.964;2023-01-19T06:08:57;11.27;;;8.70;;
15307;SDS011;7755;52.208;6.964;2023-01-19T06:13:02;9.43;;;8.43;;
15307;SDS011;7755;52.208;6.964;2023-01-19T06:17:05;12.93;;;8.53;;
15307;SDS011;7755;52.208;6.964;2023-01-19T06:21:09;8.53;;;7.63;;
15307;SDS011;7755;52.208;6.964;2023-01-19T06:25:15;7.37;;;6.57;;
15307;SDS011;7755;52.208;6.964;2023-01-19T06:29:20;7.63;;;6.67;;
15307;SDS011;7755;52.208;6.964;2023-01-19T06:33:23;11.10;;;7.97;;
15307;SDS011;7755;52.208;6.964;2023-01-19T06:37:28;11.80;;;7.73;;
15307;SDS011;7755;52.208;6.964;2023-01-19T06:41:32;8.43;;;6.23;;
15307;SDS011;7755;52.208;6.964;2023-01-19T06:45:36;6.07;;;5.20;;
15307;SDS011;7755;52.208;6.964;2023-01-19T06:49:40;10.07;;;6.10;;
15307;SDS011;7755;52.208;6.964;2023-01-19T06:53:43;11.93;;;6.23;;
15307;SDS011;7755;52.208;6.964;2023-01-19T06:57:47;9.57;;;6.17;;
15307;SDS011;7755;52.208;6.964;2023-01-19T07:01:58;5.93;;;4.63;;
15307;SDS011;7755;52.208;6.964;2023-01-19T07:06:21;7.13;;;5.00;;
15307;SDS011;7755;52.208;6.964;2023-01-19T07:10:24;8.27;;;5.77;;
15307;SDS011;7755;52.208;6.964;2023-01-19T07:14:50;10.17;;;6.43;;
15307;SDS011;7755;52.208;6.964;2023-01-19T07:18:54;9.63;;;5.77;;
15307;SDS011;7755;52.208;6.964;2023-01-19T07:22:57;11.27;;;6.73;;
15307;SDS011;7755;52.208;6.964;2023-01-19T07:27:00;10.23;;;6.03;;
15307;SDS011;7755;52.208;6.964;2023-01-19T07:31:03;12.20;;;6.37;;
15307;SDS011;7755;52.208;6.964;2023-01-19T07:35:08;9.97;;;6.03;;
15307;SDS011;7755;52.208;6.964;2023-01-19T07:39:11;12.83;;;6.87;;
15307;SDS011;7755;52.208;6.964;2023-01-19T07:43:14;11.23;;;7.03;;
15307;SDS011;7755;52.208;6.964;2023-01-19T07:47:18;10.87;;;7.80;;
15307;SDS011;7755;52.208;6.964;2023-01-19T07:51:22;11.30;;;7.23;;
15307;SDS011;7755;52.208;6.964;2023-01-19T07:55:25;10.50;;;7.00;;
15307;SDS011;7755;52.208;6.964;2023-01-19T07:59:28;13.13;;;7.07;;
15307;SDS011;7755;52.208;6.964;2023-01-19T08:03:32;12.73;;;7.30;;
15307;SDS011;7755;52.208;6.964;2023-01-19T08:07:37;10.63;;;6.53;;
15307;SDS011;7755;52.208;6.964;2023-01-19T08:11:41;10.83;;;6.33;;
15307;SDS011;7755;52.208;6.964;2023-01-19T08:15:46;10.50;;;5.90;;
15307;SDS011;7755;52.208;6.964;2023-01-19T08:19:51;15.83;;;11.53;;
15307;SDS011;7755;52.208;6.964;2023-01-19T08:23:55;11.63;;;6.20;;
15307;SDS011;7755;52.208;6.964;2023-01-19T08:27:59;11.80;;;6.00;;
15307;SDS011;7755;52.208;6.964;2023-01-19T08:32:03;10.43;;;5.70;;
15307;SDS011;7755;52.208;6.964;2023-01-19T08:36:07;10.80;;;6.67;;
15307;SDS011;7755;52.208;6.964;2023-01-19T08:40:12;13.73;;;5.57;;
15307;SDS011;7755;52.208;6.964;2023-01-19T08:44:15;11.63;;;5.63;;
15307;SDS011;7755;52.208;6.964;2023-01-19T08:48:21;11.83;;;6.20;;
15307;SDS011;7755;52.208;6.964;2023-01-19T08:52:25;10.83;;;6.47;;
15307;SDS011;7755;52.208;6.964;2023-01-19T08:56:31;11.90;;;5.97;;
15307;SDS011;7755;52.208;6.964;2023-01-19T09:00:35;10.97;;;4.90;;
15307;SDS011;7755;52.208;6.964;2023-01-19T09:04:39;14.07;;;6.70;;
15307;SDS011;7755;52.208;6.964;2023-01-19T09:08:42;12.80;;;5.60;;
15307;SDS011;7755;52.208;6.964;2023-01-19T09:12:46;12.77;;;6.90;;
15307;SDS011;7755;52.208;6.964;2023-01-19T09:16:50;9.00;;;5.00;;
15307;SDS011;7755;52.208;6.964;2023-01-19T09:20:55;8.07;;;4.67;;
15307;SDS011;7755;52.208;6.964;2023-01-19T09:24:59;10.13;;;4.20;;
15307;SDS011;7755;52.208;6.964;2023-01-19T09:29:03;13.33;;;5.40;;
15307;SDS011;7755;52.208;6.964;2023-01-19T09:33:07;11.33;;;5.13;;
15307;SDS011;7755;52.208;6.964;2023-01-19T09:37:12;10.27;;;4.60;;
15307;SDS011;7755;52.208;6.964;2023-01-19T09:41:17;13.20;;;5.20;;
15307;SDS011;7755;52.208;6.964;2023-01-19T09:45:25;14.20;;;5.57;;
15307;SDS011;7755;52.208;6.964;2023-01-19T09:49:33;14.70;;;6.27;;
15307;SDS011;7755;52.208;6.964;2023-01-19T09:53:49;17.60;;;9.13;;
15307;SDS011;7755;52.208;6.964;2023-01-19T09:57:58;16.83;;;7.67;;
15307;SDS011;7755;52.208;6.964;2023-01-19T10:02:06;13.87;;;5.87;;
15307;SDS011;7755;52.208;6.964;2023-01-19T10:06:20;12.60;;;6.63;;
15307;SDS011;7755;52.208;6.964;2023-01-19T10:10:25;12.93;;;6.07;;
15307;SDS011;7755;52.208;6.964;2023-01-19T10:14:31;14.80;;;8.23;;
15307;SDS011;7755;52.208;6.964;2023-01-19T10:18:43;8.67;;;5.73;;
15307;SDS011;7755;52.208;6.964;2023-01-19T10:22:48;10.67;;;5.33;;
15307;SDS011;7755;52.208;6.964;2023-01-19T10:26:53;11.13;;;6.50;;
15307;SDS011;7755;52.208;6.964;2023-01-19T10:30:57;10.37;;;4.87;;
15307;SDS011;7755;52.208;6.964;2023-01-19T10:35:03;7.77;;;5.90;;
15307;SDS011;7755;52.208;6.964;2023-01-19T10:39:22;9.97;;;6.70;;
15307;SDS011;7755;52.208;6.964;2023-01-19T10:43:33;11.13;;;6.17;;
15307;SDS011;7755;52.208;6.964;2023-01-19T10:47:39;14.03;;;7.87;;
15307;SDS011;7755;52.208;6.964;2023-01-19T10:51:46;10.33;;;5.97;;
15307;SDS011;7755;52.208;6.964;2023-01-19T10:55:50;13.83;;;6.30;;
15307;SDS011;7755;52.208;6.964;2023-01-19T11:00:28;14.07;;;7.17;;
15307;SDS011;7755;52.208;6.964;2023-01-19T11:04:36;9.33;;;5.93;;
15307;SDS011;7755;52.208;6.964;2023-01-19T11:08:40;10.30;;;6.90;;
15307;SDS011;7755;52.208;6.964;2023-01-19T11:12:45;12.43;;;6.07;;
15307;SDS011;7755;52.208;6.964;2023-01-19T11:16:55;12.23;;;5.80;;
15307;SDS011;7755;52.208;6.964;2023-01-19T11:20:59;11.30;;;6.50;;
15307;SDS011;7755;52.208;6.964;2023-01-19T11:25:18;12.10;;;7.17;;
15307;SDS011;7755;52.208;6.964;2023-01-19T11:29:26;8.77;;;6.40;;
15307;SDS011;7755;52.208;6.964;2023-01-19T11:33:32;11.90;;;5.57;;
15307;SDS011;7755;52.208;6.964;2023-01-19T11:37:36;11.67;;;6.77;;
15307;SDS011;7755;52.208;6.964;2023-01-19T11:41:43;10.07;;;5.77;;
15307;SDS011;7755;52.208;6.964;2023-01-19T11:45:51;10.40;;;5.60;;
15307;SDS011;7755;52.208;6.964;2023-01-19T11:49:57;12.17;;;4.90;;
15307;SDS011;7755;52.208;6.964;2023-01-19T11:54:04;18.00;;;9.20;;
15307;SDS011;7755;52.208;6.964;2023-01-19T11:58:25;13.20;;;7.07;;
15307;SDS011;7755;52.208;6.964;2023-01-19T12:02:29;6.20;;;4.07;;
15307;SDS011;7755;52.208;6.964;2023-01-19T12:06:43;12.17;;;5.37;;
15307;SDS011;7755;52.208;6.964;2023-01-19T12:10:50;12.17;;;5.00;;
15307;SDS011;7755;52.208;6.964;2023-01-19T12:14:59;16.23;;;5.60;;
15307;SDS011;7755;52.208;6.964;2023-01-19T12:19:05;15.20;;;7.03;;
15307;SDS011;7755;52.208;6.964;2023-01-19T12:23:18;14.97;;;7.73;;
15307;SDS011;7755;52.208;6.964;2023-01-19T12:27:35;15.53;;;6.30;;
15307;SDS011;7755;52.208;6.964;2023-01-19T12:31:42;16.17;;;8.30;;
15307;SDS011;7755;52.208;6.964;2023-01-19T12:35:56;18.43;;;10.00;;
15307;SDS011;7755;52.208;6.964;2023-01-19T12:40:02;13.60;;;8.20;;
15307;SDS011;7755;52.208;6.964;2023-01-19T12:44:28;17.17;;;9.37;;
15307;SDS011;7755;52.208;6.964;2023-01-19T12:48:36;18.83;;;9.97;;
15307;SDS011;7755;52.208;6.964;2023-01-19T12:52:40;12.20;;;8.17;;
15307;SDS011;7755;52.208;6.964;2023-01-19T12:56:55;24.67;;;12.60;;
15307;SDS011;7755;52.208;6.964;2023-01-19T13:01:11;12.33;;;8.00;;
15307;SDS011;7755;52.208;6.964;2023-01-19T13:05:20;15.03;;;8.13;;
15307;SDS011;7755;52.208;6.964;2023-01-19T13:09:48;17.40;;;9.10;;
15307;SDS011;7755;52.208;6.964;2023-01-19T13:18:37;18.07;;;9.27;;
15307;SDS011;7755;52.208;6.964;2023-01-19T13:22:49;12.37;;;6.00;;
15307;SDS011;7755;52.208;6.964;2023-01-19T13:26:54;12.70;;;5.87;;
15307;SDS011;7755;52.208;6.964;2023-01-19T13:31:04;14.57;;;6.90;;
15307;SDS011;7755;52.208;6.964;2023-01-19T13:35:13;13.10;;;5.53;;
15307;SDS011;7755;52.208;6.964;2023-01-19T13:39:23;9.73;;;4.43;;
15307;SDS011;7755;52.208;6.964;2023-01-19T13:43:31;11.13;;;5.63;;
15307;SDS011;7755;52.208;6.964;2023-01-19T13:47:40;13.03;;;5.23;;
15307;SDS011;7755;52.208;6.964;2023-01-19T13:51:45;8.77;;;4.60;;
15307;SDS011;7755;52.208;6.964;2023-01-19T14:00:30;9.47;;;4.63;;
15307;SDS011;7755;52.208;6.964;2023-01-19T14:04:34;8.37;;;3.57;;
15307;SDS011;7755;52.208;6.964;2023-01-19T14:08:37;8.03;;;4.43;;
15307;SDS011;7755;52.208;6.964;2023-01-19T14:12:42;7.13;;;3.40;;
15307;SDS011;7755;52.208;6.964;2023-01-19T14:16:59;5.53;;;3.10;;
15307;SDS011;7755;52.208;6.964;2023-01-19T14:21:03;5.17;;;3.13;;
15307;SDS011;7755;52.208;6.964;2023-01-19T14:25:20;5.57;;;3.60;;
15307;SDS011;7755;52.208;6.964;2023-01-19T14:29:32;10.30;;;5.37;;
15307;SDS011;7755;52.208;6.964;2023-01-19T14:33:39;8.90;;;5.60;;
15307;SDS011;7755;52.208;6.964;2023-01-19T14:37:45;8.57;;;6.30;;
15307;SDS011;7755;52.208;6.964;2023-01-19T14:41:49;11.93;;;8.10;;
15307;SDS011;7755;52.208;6.964;2023-01-19T14:45:56;15.37;;;8.93;;
15307;SDS011;7755;52.208;6.964;2023-01-19T14:50:01;18.30;;;9.67;;
15307;SDS011;7755;52.208;6.964;2023-01-19T14:54:11;12.70;;;10.47;;
15307;SDS011;7755;52.208;6.964;2023-01-19T14:58:21;21.83;;;11.90;;
15307;SDS011;7755;52.208;6.964;2023-01-19T15:02:27;18.73;;;12.37;;
15307;SDS011;7755;52.208;6.964;2023-01-19T15:06:30;17.40;;;12.60;;
15307;SDS011;7755;52.208;6.964;2023-01-19T15:10:40;19.10;;;14.83;;
15307;SDS011;7755;52.208;6.964;2023-01-19T15:14:44;23.37;;;15.73;;
15307;SDS011;7755;52.208;6.964;2023-01-19T15:18:49;20.60;;;15.57;;
15307;SDS011;7755;52.208;6.964;2023-01-19T15:22:52;22.53;;;16.10;;
15307;SDS011;7755;52.208;6.964;2023-01-19T15:26:55;21.63;;;16.13;;
15307;SDS011;7755;52.208;6.964;2023-01-19T15:31:02;24.80;;;16.80;;
15307;SDS011;7755;52.208;6.964;2023-01-19T15:35:12;21.90;;;16.80;;
15307;SDS011;7755;52.208;6.964;2023-01-19T15:39:16;28.33;;;18.67;;
15307;SDS011;7755;52.208;6.964;2023-01-19T15:43:19;28.50;;;18.10;;
15307;SDS011;7755;52.208;6.964;2023-01-19T15:47:23;24.60;;;18.70;;
15307;SDS011;7755;52.208;6.964;2023-01-19T15:51:27;22.17;;;17.90;;
15307;SDS011;7755;52.208;6.964;2023-01-19T15:55:30;27.87;;;19.80;;
15307;SDS011;7755;52.208;6.964;2023-01-19T15:59:33;21.00;;;16.63;;
15307;SDS011;7755;52.208;6.964;2023-01-19T16:03:36;22.07;;;17.43;;
15307;SDS011;7755;52.208;6.964;2023-01-19T16:07:41;24.47;;;16.83;;
15307;SDS011;7755;52.208;6.964;2023-01-19T16:11:44;23.90;;;17.40;;
15307;SDS011;7755;52.208;6.964;2023-01-19T16:15:48;35.43;;;25.80;;
15307;SDS011;7755;52.208;6.964;2023-01-19T16:19:58;51.10;;;35.40;;
15307;SDS011;7755;52.208;6.964;2023-01-19T16:24:03;57.60;;;41.63;;
15307;SDS011;7755;52.208;6.964;2023-01-19T16:28:06;40.07;;;31.50;;
15307;SDS011;7755;52.208;6.964;2023-01-19T16:32:09;28.97;;;21.80;;
15307;SDS011;7755;52.208;6.964;2023-01-19T16:36:20;34.73;;;25.87;;
15307;SDS011;7755;52.208;6.964;2023-01-19T16:40:31;28.87;;;23.40;;
15307;SDS011;7755;52.208;6.964;2023-01-19T16:44:35;34.20;;;26.07;;
15307;SDS011;7755;52.208;6.964;2023-01-19T16:48:38;34.13;;;28.03;;
15307;SDS011;7755;52.208;6.964;2023-01-19T16:52:43;33.37;;;26.67;;
15307;SDS011;7755;52.208;6.964;2023-01-19T16:56:48;35.13;;;25.40;;
15307;SDS011;7755;52.208;6.964;2023-01-19T17:00:51;32.93;;;25.90;;
15307;SDS011;7755;52.208;6.964;2023-01-19T17:04:55;25.13;;;18.47;;
15307;SDS011;7755;52.208;6.964;2023-01-19T17:09:01;30.90;;;26.07;;
15307;SDS011;7755;52.208;6.964;2023-01-19T17:13:06;25.10;;;18.40;;
15307;SDS011;7755;52.208;6.964;2023-01-19T17:17:09;19.80;;;15.83;;
15307;SDS011;7755;52.208;6.964;2023-01-19T17:21:13;22.27;;;16.87;;
15307;SDS011;7755;52.208;6.964;2023-01-19T17:25:20;18.20;;;15.30;;
15307;SDS011;7755;52.208;6.964;2023-01-19T17:29:26;21.27;;;17.03;;
15307;SDS011;7755;52.208;6.964;2023-01-19T17:33:29;25.07;;;18.57;;
15307;SDS011;7755;52.208;6.964;2023-01-19T17:37:33;24.40;;;19.10;;
15307;SDS011;7755;52.208;6.964;2023-01-19T17:41:36;32.57;;;22.47;;
15307;SDS011;7755;52.208;6.964;2023-01-19T17:45:41;34.93;;;24.73;;
15307;SDS011;7755;52.208;6.964;2023-01-19T17:49:44;26.70;;;23.30;;
15307;SDS011;7755;52.208;6.964;2023-01-19T17:53:47;31.97;;;22.73;;
15307;SDS011;7755;52.208;6.964;2023-01-19T17:57:52;31.93;;;25.03;;
15307;SDS011;7755;52.208;6.964;2023-01-19T18:02:08;32.03;;;22.93;;
15307;SDS011;7755;52.208;6.964;2023-01-19T18:06:11;34.30;;;24.17;;
15307;SDS011;7755;52.208;6.964;2023-01-19T18:10:15;31.83;;;24.50;;
15307;SDS011;7755;52.208;6.964;2023-01-19T18:14:19;35.37;;;25.67;;
15307;SDS011;7755;52.208;6.964;2023-01-19T18:18:24;30.83;;;24.10;;
15307;SDS011;7755;52.208;6.964;2023-01-19T18:22:27;31.23;;;23.77;;
15307;SDS011;7755;52.208;6.964;2023-01-19T18:26:31;34.13;;;25.10;;
15307;SDS011;7755;52.208;6.964;2023-01-19T18:30:36;36.43;;;29.43;;
15307;SDS011;7755;52.208;6.964;2023-01-19T18:34:40;68.47;;;47.93;;
15307;SDS011;7755;52.208;6.964;2023-01-19T18:38:44;56.87;;;38.57;;
15307;SDS011;7755;52.208;6.964;2023-01-19T18:42:48;60.87;;;38.43;;
15307;SDS011;7755;52.208;6.964;2023-01-19T18:46:52;46.83;;;31.37;;
15307;SDS011;7755;52.208;6.964;2023-01-19T18:50:58;49.30;;;34.47;;
15307;SDS011;7755;52.208;6.964;2023-01-19T18:55:03;44.10;;;31.00;;
15307;SDS011;7755;52.208;6.964;2023-01-19T18:59:07;45.47;;;33.00;;
15307;SDS011;7755;52.208;6.964;2023-01-19T19:03:11;41.97;;;33.13;;
15307;SDS011;7755;52.208;6.964;2023-01-19T19:07:16;46.90;;;33.93;;
15307;SDS011;7755;52.208;6.964;2023-01-19T19:11:19;41.00;;;28.93;;
15307;SDS011;7755;52.208;6.964;2023-01-19T19:15:24;38.70;;;29.83;;
15307;SDS011;7755;52.208;6.964;2023-01-19T19:19:27;43.77;;;32.17;;
15307;SDS011;7755;52.208;6.964;2023-01-19T19:23:31;41.57;;;29.97;;
15307;SDS011;7755;52.208;6.964;2023-01-19T19:27:36;49.13;;;32.40;;
15307;SDS011;7755;52.208;6.964;2023-01-19T19:31:39;47.40;;;32.00;;
15307;SDS011;7755;52.208;6.964;2023-01-19T19:35:42;40.77;;;28.37;;
15307;SDS011;7755;52.208;6.964;2023-01-19T19:39:47;44.30;;;29.57;;
15307;SDS011;7755;52.208;6.964;2023-01-19T19:43:50;48.07;;;31.63;;
15307;SDS011;7755;52.208;6.964;2023-01-19T19:47:54;42.60;;;29.73;;
15307;SDS011;7755;52.208;6.964;2023-01-19T19:51:58;42.10;;;27.60;;
15307;SDS011;7755;52.208;6.964;2023-01-19T19:56:03;40.77;;;28.10;;
15307;SDS011;7755;52.208;6.964;2023-01-19T20:00:08;56.00;;;32.80;;
15307;SDS011;7755;52.208;6.964;2023-01-19T20:04:12;50.17;;;33.67;;
15307;SDS011;7755;52.208;6.964;2023-01-19T20:08:16;46.70;;;33.93;;
15307;SDS011;7755;52.208;6.964;2023-01-19T20:12:21;44.83;;;31.17;;
15307;SDS011;7755;52.208;6.964;2023-01-19T20:16:24;53.57;;;32.70;;
15307;SDS011;7755;52.208;6.964;2023-01-19T20:20:27;54.70;;;33.57;;
15307;SDS011;7755;52.208;6.964;2023-01-19T20:24:30;52.63;;;34.33;;
15307;SDS011;7755;52.208;6.964;2023-01-19T20:28:35;57.33;;;37.77;;
15307;SDS011;7755;52.208;6.964;2023-01-19T20:32:39;49.60;;;32.13;;
15307;SDS011;7755;52.208;6.964;2023-01-19T20:36:43;51.40;;;33.27;;
15307;SDS011;7755;52.208;6.964;2023-01-19T20:40:50;55.27;;;34.37;;
15307;SDS011;7755;52.208;6.964;2023-01-19T20:44:56;56.70;;;39.03;;
15307;SDS011;7755;52.208;6.964;2023-01-19T20:48:59;49.03;;;31.60;;
15307;SDS011;7755;52.208;6.964;2023-01-19T20:53:02;53.13;;;33.33;;
15307;SDS011;7755;52.208;6.964;2023-01-19T20:57:05;58.57;;;34.57;;
15307;SDS011;7755;52.208;6.964;2023-01-19T21:01:11;53.83;;;32.50;;
15307;SDS011;7755;52.208;6.964;2023-01-19T21:05:16;54.33;;;32.70;;
15307;SDS011;7755;52.208;6.964;2023-01-19T21:09:19;55.70;;;33.77;;
15307;SDS011;7755;52.208;6.964;2023-01-19T21:13:24;52.37;;;32.10;;
15307;SDS011;7755;52.208;6.964;2023-01-19T21:17:28;56.60;;;33.03;;
15307;SDS011;7755;52.208;6.964;2023-01-19T21:21:31;55.40;;;33.17;;
15307;SDS011;7755;52.208;6.964;2023-01-19T21:25:34;46.17;;;29.27;;
15307;SDS011;7755;52.208;6.964;2023-01-19T21:29:38;55.47;;;34.23;;
15307;SDS011;7755;52.208;6.964;2023-01-19T21:33:43;50.50;;;32.83;;
15307;SDS011;7755;52.208;6.964;2023-01-19T21:37:46;58.47;;;34.60;;
15307;SDS011;7755;52.208;6.964;2023-01-19T21:41:50;51.10;;;31.13;;
15307;SDS011;7755;52.208;6.964;2023-01-19T21:45:53;55.27;;;32.83;;
15307;SDS011;7755;52.208;6.964;2023-01-19T21:49:58;61.23;;;34.80;;
15307;SDS011;7755;52.208;6.964;2023-01-19T21:54:03;58.13;;;36.47;;
15307;SDS011;7755;52.208;6.964;2023-01-19T21:58:08;51.60;;;32.47;;
15307;SDS011;7755;52.208;6.964;2023-01-19T22:02:11;59.43;;;36.70;;
15307;SDS011;7755;52.208;6.964;2023-01-19T22:06:16;50.07;;;32.80;;
15307;SDS011;7755;52.208;6.964;2023-01-19T22:10:18;51.23;;;30.40;;
15307;SDS011;7755;52.208;6.964;2023-01-19T22:14:21;58.90;;;37.40;;
15307;SDS011;7755;52.208;6.964;2023-01-19T22:18:24;50.63;;;35.70;;
15307;SDS011;7755;52.208;6.964;2023-01-19T22:22:29;56.20;;;34.37;;
15307;SDS011;7755;52.208;6.964;2023-01-19T22:26:34;52.57;;;33.67;;
15307;SDS011;7755;52.208;6.964;2023-01-19T22:30:37;54.03;;;36.00;;
15307;SDS011;7755;52.208;6.964;2023-01-19T22:34:40;55.53;;;32.70;;
15307;SDS011;7755;52.208;6.964;2023-01-19T22:38:46;50.47;;;30.77;;
15307;SDS011;7755;52.208;6.964;2023-01-19T22:42:51;59.53;;;38.10;;
15307;SDS011;7755;52.208;6.964;2023-01-19T22:46:54;49.20;;;31.37;;
15307;SDS011;7755;52.208;6.964;2023-01-19T22:50:58;48.53;;;29.77;;
15307;SDS011;7755;52.208;6.964;2023-01-19T22:55:02;53.20;;;35.40;;
15307;SDS011;7755;52.208;6.964;2023-01-19T22:59:06;52.23;;;33.83;;
15307;SDS011;7755;52.208;6.964;2023-01-19T23:03:09;40.37;;;26.17;;
15307;SDS011;7755;52.208;6.964;2023-01-19T23:07:12;39.77;;;26.50;;
15307;SDS011;7755;52.208;6.964;2023-01-19T23:11:17;42.60;;;27.60;;
15307;SDS011;7755;52.208;6.964;2023-01-19T23:15:22;42.40;;;26.63;;
15307;SDS011;7755;52.208;6.964;2023-01-19T23:19:25;36.40;;;23.93;;
15307;SDS011;7755;52.208;6.964;2023-01-19T23:23:28;46.30;;;27.53;;
15307;SDS011;7755;52.208;6.964;2023-01-19T23:27:33;40.27;;;26.30;;
15307;SDS011;7755;52.208;6.964;2023-01-19T23:31:37;40.93;;;25.00;;
15307;SDS011;7755;52.208;6.964;2023-01-19T23:35:41;38.97;;;25.33;;
15307;SDS011;7755;52.208;6.964;2023-01-19T23:39:44;43.27;;;25.77;;
15307;SDS011;7755;52.208;6.964;2023-01-19T23:43:49;40.60;;;26.67;;
15307;SDS011;7755;52.208;6.964;2023-01-19T23:47:52;42.47;;;26.47;;
15307;SDS011;7755;52.208;6.964;2023-01-19T23:51:55;40.40;;;24.03;;
15307;SDS011;7755;52.208;6.964;2023-01-19T23:55:58;40.43;;;25.27;;
